Time;durP1;ratioP1;P1;durP2;ratioP2;P2;SDS_P1;SDS_P2;PMS_P1;PMS_P2;Temp;Humidity;BMP_temperature;BMP_pressure;BME280_temperature;BME280_humidity;BME280_pressure;Samples;Min_cycle;Max_cycle;Signal;HPM_P1;HPM_P2
2022/11/25 00:01:33;;;;;;;13.02;1.13;;;8.90;99.90;;;;;;5036819;28;20025;-74
2022/11/25 00:03:59;;;;;;;15.80;2.15;;;8.90;99.90;;;;;;5036709;28;20032;-74
2022/11/25 00:06:33;;;;;;;7.68;0.65;;;8.90;99.90;;;;;;5036735;28;20106;-75
2022/11/25 00:09:01;;;;;;;9.23;1.25;;;8.80;99.90;;;;;;5037075;28;20025;-75
2022/11/25 00:11:27;;;;;;;16.45;1.38;;;8.90;99.90;;;;;;5036968;28;20480;-75
2022/11/25 00:13:55;;;;;;;20.33;1.08;;;8.80;99.90;;;;;;5036446;28;20029;-75
2022/11/25 00:16:21;;;;;;;9.18;0.93;;;8.80;99.90;;;;;;5036844;28;20029;-75
2022/11/25 00:18:50;;;;;;;13.73;0.98;;;8.80;99.90;;;;;;5036331;28;20055;-75
2022/11/25 00:21:19;;;;;;;14.48;0.50;;;8.90;99.90;;;;;;5036275;28;20068;-74
2022/11/25 00:23:56;;;;;;;9.77;0.95;;;8.80;99.90;;;;;;5054570;28;20028;-75
2022/11/25 00:26:23;;;;;;;12.75;0.93;;;8.80;99.90;;;;;;5054473;28;20025;-74
2022/11/25 00:28:50;;;;;;;11.20;1.60;;;8.80;99.90;;;;;;5035681;28;20025;-74
2022/11/25 00:31:24;;;;;;;16.67;1.23;;;8.80;99.90;;;;;;5053963;28;20032;-74
2022/11/25 00:33:50;;;;;;;11.07;1.25;;;8.80;99.90;;;;;;5036237;28;20087;-75
2022/11/25 00:36:24;;;;;;;8.38;1.50;;;8.80;99.90;;;;;;5054423;28;20036;-74
2022/11/25 00:38:54;;;;;;;12.07;1.27;;;8.80;99.90;;;;;;5054207;28;20060;-75
2022/11/25 00:46:49;;;;;;;12.70;0.68;;;8.80;99.90;;;;;;5054222;28;20032;-74
2022/11/25 00:49:14;;;;;;;10.65;1.13;;;8.70;99.90;;;;;;5054557;28;20021;-75
2022/11/25 00:51:40;;;;;;;14.05;0.55;;;8.80;99.90;;;;;;5053964;28;20052;-75
2022/11/25 00:54:05;;;;;;;9.20;1.05;;;8.70;99.90;;;;;;5054221;28;20021;-74
2022/11/25 00:56:31;;;;;;;9.18;0.82;;;8.70;99.90;;;;;;5053819;28;20403;-74
2022/11/25 00:58:57;;;;;;;8.13;1.67;;;8.80;99.90;;;;;;5035730;28;20036;-74
2022/11/25 01:01:23;;;;;;;14.13;0.90;;;8.80;99.90;;;;;;5036076;28;20033;-74
2022/11/25 01:03:50;;;;;;;7.55;1.05;;;8.70;99.90;;;;;;5035837;28;20495;-75
2022/11/25 01:06:16;;;;;;;7.93;0.63;;;8.70;99.90;;;;;;5035778;28;20086;-75
2022/11/25 01:08:44;;;;;;;13.27;0.55;;;8.70;99.90;;;;;;5035778;28;20010;-75
2022/11/25 01:11:14;;;;;;;15.50;0.40;;;9.30;99.90;;;;;;5035581;28;20021;-75
2022/11/25 01:13:40;;;;;;;8.20;0.32;;;8.70;99.90;;;;;;5035551;28;20411;-74
2022/11/25 01:16:09;;;;;;;11.95;1.38;;;8.70;99.90;;;;;;5035520;28;20029;-75
2022/11/25 01:18:35;;;;;;;5.63;0.32;;;8.80;99.90;;;;;;5035797;28;20520;-75
2022/11/25 01:21:09;;;;;;;5.45;0.60;;;8.70;99.90;;;;;;5035848;28;20107;-74
2022/11/25 01:23:35;;;;;;;11.88;1.75;;;8.70;99.90;;;;;;5035553;28;20060;-75
2022/11/25 01:26:06;;;;;;;6.78;0.52;;;8.80;99.90;;;;;;5035334;28;20021;-75
2022/11/25 01:28:32;;;;;;;16.05;1.35;;;8.70;99.90;;;;;;5053647;28;20510;-74
2022/11/25 01:31:04;;;;;;;10.00;1.10;;;8.80;99.90;;;;;;5035584;28;20013;-74
2022/11/25 01:33:33;;;;;;;9.60;1.15;;;8.80;99.90;;;;;;5053208;28;20115;-75
2022/11/25 01:36:03;;;;;;;13.05;1.42;;;8.80;99.90;;;;;;5053880;28;20380;-74
2022/11/25 01:38:30;;;;;;;17.15;2.40;;;8.70;99.90;;;;;;5036501;28;20203;-74
2022/11/25 01:40:55;;;;;;;8.90;0.68;;;8.80;99.90;;;;;;5039778;28;20017;-75
2022/11/25 01:43:21;;;;;;;16.40;1.50;;;8.80;99.90;;;;;;5057331;28;20368;-75
2022/11/25 01:45:46;;;;;;;11.10;0.70;;;8.90;99.90;;;;;;5039932;28;20402;-75
2022/11/25 01:48:27;;;;;;;14.93;1.55;;;8.90;99.90;;;;;;5057724;28;20432;-75
2022/11/25 01:50:53;;;;;;;9.07;0.77;;;8.90;99.90;;;;;;5039661;28;20017;-75
2022/11/25 01:53:20;;;;;;;13.10;0.98;;;9.00;99.90;;;;;;5057500;28;20086;-74
2022/11/25 01:55:55;;;;;;;16.88;0.85;;;8.90;99.90;;;;;;5057277;28;20021;-74
2022/11/25 01:58:31;;;;;;;12.68;0.38;;;8.90;99.90;;;;;;5057643;28;20395;-74
2022/11/25 02:00:58;;;;;;;10.18;1.15;;;9.00;99.90;;;;;;5039373;28;20029;-74
2022/11/25 02:03:36;;;;;;;7.47;0.50;;;9.00;99.90;;;;;;5057120;28;20025;-75
2022/11/25 02:06:15;;;;;;;;;;;9.00;99.90;;;;;;5039243;28;20028;-74
2022/11/25 02:08:42;;;;;;;;;;;9.00;99.90;;;;;;5039701;28;19944;-75
2022/11/25 02:11:07;;;;;;;14.15;1.45;;;9.00;99.90;;;;;;5057179;28;19904;-74
2022/11/25 02:16:04;;;;;;;13.75;0.82;;;9.10;99.90;;;;;;5074782;28;20040;-74
2022/11/25 02:18:30;;;;;;;9.38;0.93;;;9.10;99.90;;;;;;5059316;28;20386;-74
2022/11/25 02:20:55;;;;;;;10.75;1.08;;;9.00;99.90;;;;;;5076595;28;20021;-74
2022/11/25 02:23:47;;;;;;;8.15;1.90;;;9.10;99.90;;;;;;5076874;28;20032;-74
2022/11/25 02:26:12;;;;;;;11.68;0.82;;;9.00;99.90;;;;;;5059137;28;20435;-74
2022/11/25 02:28:39;;;;;;;9.10;0.73;;;9.10;99.90;;;;;;5077128;28;20067;-74
2022/11/25 02:31:06;;;;;;;12.98;1.23;;;9.10;99.90;;;;;;5059004;28;20455;-74
2022/11/25 02:33:32;;;;;;;11.50;0.82;;;9.10;99.90;;;;;;5059059;28;20399;-74
2022/11/25 02:36:00;;;;;;;14.73;0.95;;;9.10;99.90;;;;;;5076365;28;20025;-74
2022/11/25 02:38:25;;;;;;;7.57;0.85;;;9.10;99.90;;;;;;5058890;28;20399;-74
2022/11/25 02:41:00;;;;;;;9.35;0.90;;;9.10;99.90;;;;;;5076552;28;20024;-74
2022/11/25 02:43:26;;;;;;;10.85;0.57;;;9.10;99.90;;;;;;5076368;28;20032;-74
2022/11/25 02:45:59;;;;;;;5.63;0.50;;;9.10;99.90;;;;;;5058513;28;20169;-74
2022/11/25 02:48:27;;;;;;;10.20;0.98;;;9.10;99.90;;;;;;5076543;28;20021;-74
2022/11/25 02:50:53;;;;;;;7.65;0.77;;;9.10;99.90;;;;;;5075425;28;20017;-74
2022/11/25 02:53:19;;;;;;;9.95;0.93;;;9.00;99.90;;;;;;5058227;28;20029;-74
2022/11/25 02:55:44;;;;;;;8.20;1.13;;;9.10;99.90;;;;;;5058101;28;20029;-74
2022/11/25 02:58:10;;;;;;;11.73;0.68;;;9.10;99.90;;;;;;5076310;28;20028;-74
2022/11/25 03:00:35;;;;;;;4.68;0.43;;;9.00;99.90;;;;;;5058398;28;20483;-74
2022/11/25 03:03:02;;;;;;;7.95;1.08;;;9.10;99.90;;;;;;5076151;28;20425;-74
2022/11/25 03:05:27;;;;;;;5.35;1.10;;;9.00;99.90;;;;;;5075740;28;20032;-75
2022/11/25 03:07:53;;;;;;;15.07;1.40;;;9.10;99.90;;;;;;5057649;28;20021;-74
2022/11/25 03:10:19;;;;;;;9.70;0.90;;;9.10;99.90;;;;;;5075746;28;20074;-74
2022/11/25 03:12:44;;;;;;;6.63;2.08;;;9.10;99.90;;;;;;5057924;28;20023;-74
2022/11/25 03:15:10;;;;;;;6.50;0.90;;;9.10;99.90;;;;;;5075283;28;20466;-74
2022/11/25 03:17:36;;;;;;;4.10;0.28;;;9.10;99.90;;;;;;5057648;28;20024;-74
2022/11/25 03:20:03;;;;;;;8.23;0.68;;;9.10;99.90;;;;;;5057556;28;20383;-74
2022/11/25 03:22:29;;;;;;;10.38;1.10;;;9.10;99.90;;;;;;5075375;28;20044;-74
2022/11/25 03:24:54;;;;;;;9.02;1.25;;;9.00;99.90;;;;;;5075339;28;20082;-75
2022/11/25 03:27:20;;;;;;;8.90;0.63;;;9.00;99.90;;;;;;5075909;28;20025;-75
2022/11/25 03:29:46;;;;;;;11.70;1.23;;;9.00;99.90;;;;;;5057517;28;20020;-75
2022/11/25 03:32:11;;;;;;;11.98;0.93;;;8.90;99.90;;;;;;5057433;28;20013;-75
2022/11/25 03:34:37;;;;;;;15.57;1.65;;;8.90;99.90;;;;;;5075098;28;20379;-75
2022/11/25 03:37:02;;;;;;;7.57;1.33;;;8.90;99.90;;;;;;5074943;28;20020;-75
2022/11/25 03:39:28;;;;;;;14.63;2.10;;;8.90;99.90;;;;;;5057146;28;20119;-75
2022/11/25 03:41:54;;;;;;;12.88;1.58;;;8.90;99.90;;;;;;5056983;28;20021;-75
2022/11/25 03:44:19;;;;;;;9.25;0.95;;;8.90;99.90;;;;;;5056907;28;20021;-75
2022/11/25 03:46:45;;;;;;;7.13;0.82;;;8.90;99.90;;;;;;5075002;28;20024;-75
2022/11/25 03:49:10;;;;;;;9.82;0.75;;;8.90;99.90;;;;;;5057510;28;20025;-75
2022/11/25 03:51:36;;;;;;;9.63;1.30;;;8.90;99.90;;;;;;5057654;28;20059;-75
2022/11/25 03:54:01;;;;;;;10.68;1.70;;;8.90;99.90;;;;;;5075350;28;20031;-75
2022/11/25 03:56:27;;;;;;;9.90;1.63;;;8.80;99.90;;;;;;5074692;28;20033;-75
2022/11/25 03:58:52;;;;;;;11.73;1.25;;;8.80;99.90;;;;;;5075480;28;20024;-75
2022/11/25 04:01:18;;;;;;;10.40;0.75;;;8.80;99.90;;;;;;5074556;28;20104;-75
2022/11/25 04:03:44;;;;;;;4.28;0.25;;;8.80;99.90;;;;;;5074028;28;20046;-75
2022/11/25 04:06:09;;;;;;;3.10;0.10;;;8.80;99.90;;;;;;5056482;28;20013;-76
2022/11/25 04:08:35;;;;;;;8.15;0.95;;;9.80;99.90;;;;;;5074704;28;20095;-76
2022/11/25 04:11:00;;;;;;;7.30;0.63;;;8.80;99.90;;;;;;5074766;28;20021;-75
2022/11/25 04:13:26;;;;;;;5.95;0.50;;;10.70;99.90;;;;;;5056939;28;20028;-75
2022/11/25 04:15:52;;;;;;;5.13;0.45;;;8.80;99.90;;;;;;5056118;28;20494;-75
2022/11/25 04:18:18;;;;;;;4.20;0.52;;;8.80;99.90;;;;;;5074936;28;20024;-75
2022/11/25 04:20:44;;;;;;;9.40;0.82;;;8.80;99.90;;;;;;5074550;28;20491;-75
2022/11/25 04:23:11;;;;;;;5.60;0.38;;;8.80;99.90;;;;;;5056906;28;20029;-75
2022/11/25 04:25:37;;;;;;;3.55;0.30;;;8.80;99.90;;;;;;5074090;28;20387;-75
2022/11/25 04:28:03;;;;;;;13.70;1.13;;;8.80;99.90;;;;;;5073973;28;20154;-75
2022/11/25 04:30:29;;;;;;;5.07;0.20;;;8.80;99.90;;;;;;5074127;28;20047;-75
2022/11/25 04:32:55;;;;;;;2.92;0.00;;;8.80;99.90;;;;;;5073873;28;20021;-74
2022/11/25 04:35:21;;;;;;;1.63;0.08;;;8.70;99.90;;;;;;5074052;28;20031;-73
2022/11/25 04:37:46;;;;;;;7.78;0.50;;;8.70;99.90;;;;;;5056317;28;20031;-74
2022/11/25 04:40:12;;;;;;;4.30;0.10;;;8.70;99.90;;;;;;5056175;28;20025;-74
2022/11/25 04:42:38;;;;;;;5.07;0.68;;;8.60;99.90;;;;;;5056213;28;20020;-74
2022/11/25 04:45:11;;;;;;;2.33;0.40;;;8.60;99.90;;;;;;5056519;28;20433;-74
2022/11/25 04:47:38;;;;;;;3.28;0.38;;;8.50;99.90;;;;;;5055964;28;20031;-74
2022/11/25 04:50:14;;;;;;;4.82;0.00;;;8.50;99.90;;;;;;5074221;28;20535;-74
2022/11/25 04:52:39;;;;;;;2.90;0.00;;;8.40;99.90;;;;;;5073861;28;20017;-74
2022/11/25 04:55:05;;;;;;;1.40;0.20;;;8.40;99.90;;;;;;5055928;28;20023;-73
2022/11/25 04:57:31;;;;;;;2.90;0.10;;;8.40;99.90;;;;;;5074409;28;20031;-74
2022/11/25 04:59:56;;;;;;;1.25;0.05;;;8.30;99.90;;;;;;5054755;22;20048;-73
2022/11/25 05:02:24;;;;;;;3.30;0.10;;;8.30;99.90;;;;;;5053745;28;20475;-74
2022/11/25 05:04:52;;;;;;;2.08;0.50;;;8.20;99.90;;;;;;5053752;28;20032;-74
2022/11/25 05:07:20;;;;;;;4.35;0.00;;;8.20;99.90;;;;;;5035666;28;20021;-74
2022/11/25 05:09:46;;;;;;;3.05;0.00;;;8.20;99.90;;;;;;5054271;28;20421;-74
2022/11/25 05:12:17;;;;;;;2.30;0.00;;;8.20;99.90;;;;;;5053507;28;20078;-74
2022/11/25 05:14:44;;;;;;;3.17;0.00;;;8.20;99.90;;;;;;5053311;28;20115;-74
2022/11/25 05:17:13;;;;;;;4.85;0.00;;;8.20;99.90;;;;;;5053886;28;20024;-74
2022/11/25 05:19:38;;;;;;;0.43;0.20;;;8.10;99.90;;;;;;5053441;28;20033;-74
2022/11/25 05:22:04;;;;;;;2.33;0.00;;;8.10;99.90;;;;;;5035486;28;20074;-74
2022/11/25 05:24:30;;;;;;;2.40;0.47;;;8.10;99.90;;;;;;5053109;28;20028;-74
2022/11/25 05:26:55;;;;;;;0.57;0.10;;;8.00;99.90;;;;;;5053294;28;20104;-74
2022/11/25 05:29:21;;;;;;;0.52;0.00;;;8.00;99.90;;;;;;5053415;28;20364;-74
2022/11/25 05:31:46;;;;;;;1.88;0.00;;;8.00;99.90;;;;;;5036280;28;20112;-74
2022/11/25 05:34:12;;;;;;;1.25;0.00;;;8.00;99.90;;;;;;5054128;28;20033;-74
2022/11/25 05:36:38;;;;;;;3.88;0.28;;;7.90;99.90;;;;;;5035795;28;20107;-74
2022/11/25 05:39:04;;;;;;;0.43;0.00;;;8.50;99.90;;;;;;5053057;28;20065;-73
2022/11/25 05:41:29;;;;;;;5.65;0.00;;;7.90;99.90;;;;;;5053344;28;20025;-74
2022/11/25 05:43:56;;;;;;;2.28;0.10;;;7.90;99.90;;;;;;5053257;28;20032;-74
2022/11/25 05:46:21;;;;;;;2.17;0.17;;;7.90;99.90;;;;;;5035415;28;20017;-74
2022/11/25 05:48:51;;;;;;;3.58;0.15;;;7.90;99.90;;;;;;5035647;28;20393;-74
2022/11/25 05:51:16;;;;;;;4.30;0.32;;;7.80;99.90;;;;;;5035398;28;20082;-74
2022/11/25 05:53:42;;;;;;;0.80;0.10;;;8.30;99.90;;;;;;5053020;28;20492;-74
2022/11/25 05:56:09;;;;;;;2.38;0.40;;;7.80;99.90;;;;;;5036125;28;20055;-74
2022/11/25 05:58:34;;;;;;;2.42;0.10;;;7.80;99.90;;;;;;5035392;28;20029;-73
2022/11/25 06:01:06;;;;;;;1.35;0.05;;;7.80;99.90;;;;;;5053935;28;20037;-74
2022/11/25 06:03:32;;;;;;;2.83;0.00;;;7.80;99.90;;;;;;5035002;28;20025;-74
2022/11/25 06:05:58;;;;;;;2.20;0.10;;;7.80;99.90;;;;;;5053154;28;20029;-74
2022/11/25 06:08:25;;;;;;;2.42;0.00;;;7.80;99.90;;;;;;5053116;28;20032;-73
2022/11/25 06:10:51;;;;;;;2.45;0.00;;;7.80;99.90;;;;;;5035179;28;20020;-73
2022/11/25 06:13:19;;;;;;;3.03;0.00;;;7.80;99.90;;;;;;5053363;28;20469;-73
2022/11/25 06:15:46;;;;;;;0.90;0.15;;;7.70;99.90;;;;;;5035127;28;20025;-74
2022/11/25 06:18:14;;;;;;;3.65;0.10;;;8.40;99.90;;;;;;5053188;28;20029;-74
2022/11/25 06:20:40;;;;;;;3.25;0.22;;;7.70;99.90;;;;;;5052683;28;20497;-74
2022/11/25 06:23:06;;;;;;;4.22;0.10;;;7.60;99.90;;;;;;5035126;28;20032;-73
2022/11/25 06:25:32;;;;;;;1.85;0.05;;;7.70;99.90;;;;;;5035762;28;20021;-73
2022/11/25 06:27:58;;;;;;;7.25;0.20;;;7.60;99.90;;;;;;5039764;28;20021;-74
2022/11/25 06:30:24;;;;;;;2.40;0.10;;;7.60;99.90;;;;;;5038708;28;20021;-74
2022/11/25 06:32:49;;;;;;;1.10;0.13;;;7.60;99.90;;;;;;5057552;28;20148;-74
2022/11/25 06:35:15;;;;;;;4.25;0.88;;;7.60;99.90;;;;;;5038052;28;20020;-73
2022/11/25 06:37:41;;;;;;;2.40;0.10;;;7.60;99.90;;;;;;5056692;28;20032;-74
2022/11/25 06:40:07;;;;;;;5.95;0.35;;;7.60;99.90;;;;;;5056782;28;20483;-74
2022/11/25 06:42:33;;;;;;;2.72;0.30;;;7.60;99.90;;;;;;5038304;28;20017;-73
2022/11/25 06:44:58;;;;;;;4.13;0.52;;;7.50;99.90;;;;;;5056373;28;20028;-73
2022/11/25 06:47:24;;;;;;;1.70;0.30;;;7.50;99.90;;;;;;5038101;28;20028;-73
2022/11/25 06:49:50;;;;;;;3.38;0.65;;;7.50;99.90;;;;;;5055619;28;20033;-73
2022/11/25 06:52:16;;;;;;;4.55;0.30;;;7.50;99.90;;;;;;5037970;28;20029;-74
2022/11/25 06:54:41;;;;;;;4.80;0.43;;;7.50;99.90;;;;;;5038120;28;20075;-74
2022/11/25 06:57:08;;;;;;;4.50;0.47;;;7.40;99.90;;;;;;5056105;28;20418;-74
2022/11/25 06:59:34;;;;;;;3.47;0.52;;;7.40;99.90;;;;;;5056171;28;20033;-73
2022/11/25 07:01:59;;;;;;;5.13;0.63;;;7.40;99.90;;;;;;5056202;28;20036;-72
2022/11/25 07:04:25;;;;;;;6.80;0.93;;;;;;;;;;5037389;28;20029;-74
2022/11/25 07:06:51;;;;;;;5.05;0.63;;;7.40;99.90;;;;;;5037958;28;20111;-74
2022/11/25 07:09:18;;;;;;;7.57;0.65;;;7.40;99.90;;;;;;5038067;28;20024;-74
2022/11/25 07:11:44;;;;;;;5.07;0.63;;;7.40;99.90;;;;;;5038359;28;20116;-74
2022/11/25 07:14:15;;;;;;;1.42;0.20;;;7.40;99.90;;;;;;5055958;28;20068;-74
2022/11/25 07:16:43;;;;;;;5.57;0.35;;;7.30;99.90;;;;;;5056287;28;20040;-74
2022/11/25 07:19:14;;;;;;;2.40;0.60;;;7.30;99.90;;;;;;5038332;28;20021;-74
2022/11/25 07:21:40;;;;;;;3.08;0.45;;;7.30;99.90;;;;;;5038325;28;20460;-74
2022/11/25 07:24:07;;;;;;;8.27;0.77;;;7.20;99.90;;;;;;5037879;28;20021;-74
2022/11/25 07:26:36;;;;;;;5.05;1.17;;;7.20;99.90;;;;;;5037440;28;20056;-74
2022/11/25 07:29:04;;;;;;;3.88;0.85;;;7.20;99.90;;;;;;5055912;28;20021;-74
2022/11/25 07:31:32;;;;;;;0.85;0.50;;;7.20;99.90;;;;;;5055399;28;20480;-74
2022/11/25 07:34:00;;;;;;;6.20;0.40;;;7.30;99.90;;;;;;5055399;28;20377;-74
2022/11/25 07:36:26;;;;;;;8.43;0.43;;;7.30;99.90;;;;;;5055196;28;20033;-74
2022/11/25 07:38:52;;;;;;;3.15;0.80;;;7.30;99.90;;;;;;5055399;28;20134;-74
2022/11/25 07:41:20;;;;;;;4.88;0.80;;;7.40;99.90;;;;;;5056113;28;20434;-74
2022/11/25 07:43:48;;;;;;;8.18;1.92;;;7.30;99.90;;;;;;5055549;28;20032;-74
2022/11/25 07:46:26;;;;;;;5.83;1.30;;;7.30;99.90;;;;;;5037905;28;20025;-74
2022/11/25 07:49:13;;;;;;;10.27;1.20;;;7.40;99.90;;;;;;5037902;28;20063;-74
2022/11/25 07:51:47;;;;;;;13.15;1.08;;;7.50;99.90;;;;;;5056187;28;20120;-74
2022/11/25 07:54:13;;;;;;;10.00;2.30;;;7.40;99.90;;;;;;5037619;28;20547;-73
2022/11/25 07:56:41;;;;;;;11.07;1.73;;;7.40;99.90;;;;;;5055978;28;20104;-74
2022/11/25 07:59:11;;;;;;;2.40;0.50;;;7.40;99.90;;;;;;5055644;28;20044;-74
2022/11/25 08:01:36;;;;;;;4.07;0.80;;;7.40;99.90;;;;;;5037402;28;20013;-74
2022/11/25 08:04:02;;;;;;;13.07;0.68;;;7.50;99.90;;;;;;5055365;28;20099;-74
2022/11/25 08:06:28;;;;;;;7.63;1.65;;;7.40;99.90;;;;;;5037211;28;20052;-74
2022/11/25 08:08:55;;;;;;;6.57;0.68;;;7.50;99.90;;;;;;5054944;28;20135;-74
2022/11/25 08:11:24;;;;;;;3.47;1.17;;;7.60;99.90;;;;;;5055084;28;20033;-74
2022/11/25 08:13:50;;;;;;;;;;;7.60;99.90;;;;;;5037764;28;20025;-74
2022/11/25 08:16:18;;;;;;;6.68;0.68;;;7.80;99.90;;;;;;5036685;28;19950;-74
2022/11/25 08:18:44;;;;;;;3.47;0.85;;;7.60;99.90;;;;;;5054893;28;20052;-74
2022/11/25 08:21:12;;;;;;;8.43;1.17;;;7.70;99.90;;;;;;5037090;28;20033;-74
2022/11/25 08:23:39;;;;;;;5.97;1.20;;;7.70;99.90;;;;;;5037035;28;20031;-74
2022/11/25 08:26:08;;;;;;;4.00;0.75;;;7.80;99.90;;;;;;5055129;28;20395;-74
2022/11/25 08:28:34;;;;;;;7.82;0.75;;;7.90;99.90;;;;;;5054911;28;20053;-74
2022/11/25 08:31:08;;;;;;;5.70;1.13;;;7.90;99.90;;;;;;5054933;28;20051;-74
2022/11/25 08:33:34;;;;;;;4.28;1.05;;;7.90;99.90;;;;;;5054670;28;20451;-74
2022/11/25 08:36:00;;;;;;;4.93;1.00;;;7.90;99.90;;;;;;5055129;28;20081;-73
2022/11/25 08:38:27;;;;;;;4.43;1.25;;;8.00;99.90;;;;;;5054800;28;20025;-74
2022/11/25 08:40:54;;;;;;;8.20;1.20;;;8.10;99.90;;;;;;5054588;28;20426;-73
2022/11/25 08:43:20;;;;;;;4.57;0.40;;;8.10;99.90;;;;;;5037419;28;20021;-74
2022/11/25 08:45:47;;;;;;;4.90;0.30;;;8.20;99.90;;;;;;5054730;28;20049;-74
2022/11/25 08:48:14;;;;;;;3.13;1.33;;;8.30;99.90;;;;;;5053962;28;20048;-74
2022/11/25 08:50:43;;;;;;;8.02;0.32;;;8.40;99.90;;;;;;5054510;28;20017;-74
2022/11/25 08:53:09;;;;;;;2.40;0.60;;;8.40;99.90;;;;;;5054795;28;20036;-74
2022/11/25 08:55:37;;;;;;;7.40;0.47;;;8.40;99.90;;;;;;5036600;28;20029;-74
2022/11/25 08:58:03;;;;;;;5.10;0.40;;;8.40;99.90;;;;;;5054135;28;20071;-74
2022/11/25 09:00:28;;;;;;;3.83;0.50;;;8.50;99.90;;;;;;5054425;28;20496;-74
2022/11/25 09:02:54;;;;;;;4.75;0.85;;;8.40;99.90;;;;;;5054560;28;20056;-74
2022/11/25 09:05:20;;;;;;;6.32;0.45;;;8.60;99.90;;;;;;5036479;28;20481;-74
2022/11/25 09:07:45;;;;;;;6.30;0.82;;;8.60;99.90;;;;;;5054392;28;20025;-74
2022/11/25 09:10:15;;;;;;;4.05;0.68;;;8.60;99.90;;;;;;5054145;28;20021;-74
2022/11/25 09:12:40;;;;;;;7.57;0.40;;;8.70;99.90;;;;;;5054146;28;20111;-74
2022/11/25 09:15:07;;;;;;;8.38;0.98;;;8.70;99.90;;;;;;5053997;28;20053;-74
2022/11/25 09:17:36;;;;;;;5.97;0.93;;;8.70;99.90;;;;;;5054204;28;20029;-74
2022/11/25 09:20:04;;;;;;;;;;;8.80;99.90;;;;;;5036531;28;20120;-74
2022/11/25 09:22:30;;;;;;;3.38;0.40;;;8.80;99.90;;;;;;5036299;28;19905;-74
2022/11/25 09:24:55;;;;;;;8.15;1.08;;;8.90;99.90;;;;;;5054210;28;20082;-74
2022/11/25 09:27:21;;;;;;;5.28;0.75;;;8.90;99.90;;;;;;5036702;28;20021;-74
2022/11/25 09:29:46;;;;;;;2.85;0.20;;;8.90;99.90;;;;;;5054294;28;20417;-74
2022/11/25 09:32:12;;;;;;;8.93;1.35;;;9.00;99.90;;;;;;5054198;28;20036;-74
2022/11/25 09:34:37;;;;;;;6.00;1.40;;;9.00;99.90;;;;;;5036089;28;20074;-74
2022/11/25 09:37:03;;;;;;;7.78;1.23;;;9.00;99.90;;;;;;5036569;28;20055;-74
2022/11/25 09:39:29;;;;;;;4.18;0.30;;;9.10;99.90;;;;;;5054300;28;20467;-74
2022/11/25 09:48:05;;;;;;;5.43;0.85;;;9.20;99.90;;;;;;5055034;28;20090;-74
2022/11/25 09:51:06;;;;;;;4.03;0.70;;;9.30;99.90;;;;;;5054049;28;20075;-74
2022/11/25 09:53:40;;;;;;;9.85;0.60;;;9.30;99.90;;;;;;5031508;28;20491;-74
2022/11/25 09:56:25;;;;;;;2.45;0.40;;;9.40;99.90;;;;;;5036131;28;20028;-74
2022/11/25 09:59:03;;;;;;;2.45;0.47;;;9.40;99.90;;;;;;5054186;28;20025;-74
2022/11/25 10:01:30;;;;;;;5.18;0.38;;;9.40;99.90;;;;;;5040489;28;20091;-74
2022/11/25 10:04:03;;;;;;;3.15;0.17;;;9.50;99.90;;;;;;5057692;28;20025;-74
2022/11/25 10:06:34;;;;;;;3.03;0.20;;;9.70;99.90;;;;;;5040207;28;20048;-74
2022/11/25 10:09:11;;;;;;;8.10;0.43;;;9.60;99.90;;;;;;5039749;28;20025;-74
2022/11/25 10:12:02;;;;;;;1.95;0.10;;;9.70;99.90;;;;;;5058867;28;20104;-73
2022/11/25 10:14:30;;;;;;;5.82;0.47;;;9.90;99.90;;;;;;5057380;28;20071;-73
2022/11/25 10:17:33;;;;;;;3.88;0.35;;;9.90;99.90;;;;;;5039825;28;20124;-73
2022/11/25 10:20:05;;;;;;;4.80;0.85;;;10.00;99.90;;;;;;5057545;28;20098;-74
2022/11/25 10:22:41;;;;;;;3.17;0.28;;;10.00;99.90;;;;;;5057908;28;20083;-74
2022/11/25 10:25:14;;;;;;;4.43;0.70;;;10.10;99.90;;;;;;5038826;28;20029;-74
2022/11/25 10:27:43;;;;;;;5.10;0.30;;;10.10;99.90;;;;;;5039852;28;20039;-74
2022/11/25 10:30:22;;;;;;;4.93;0.98;;;10.10;99.90;;;;;;5057414;28;20017;-74
2022/11/25 10:33:04;;;;;;;6.53;0.88;;;10.10;99.90;;;;;;5039076;28;20021;-74
2022/11/25 10:35:35;;;;;;;3.78;0.22;;;10.20;99.90;;;;;;5057086;28;20485;-74
2022/11/25 10:38:04;;;;;;;4.05;0.60;;;10.20;99.90;;;;;;5057484;28;20028;-74
2022/11/25 10:40:30;;;;;;;7.55;0.50;;;10.20;99.90;;;;;;5039163;28;20021;-73
2022/11/25 10:42:55;;;;;;;4.95;1.42;;;10.30;99.90;;;;;;5056821;28;20062;-74
2022/11/25 10:45:32;;;;;;;4.88;0.70;;;10.40;99.90;;;;;;5056406;28;20025;-73
2022/11/25 10:48:20;;;;;;;6.97;0.45;;;10.30;99.90;;;;;;5039025;28;20112;-74
2022/11/25 10:51:19;;;;;;;3.15;0.52;;;10.50;99.90;;;;;;5056885;28;20025;-74
2022/11/25 10:54:16;;;;;;;7.85;0.57;;;10.40;99.90;;;;;;5038595;28;20058;-74
2022/11/25 10:56:52;;;;;;;3.90;0.63;;;10.50;99.90;;;;;;5057579;28;20031;-74
2022/11/25 10:59:30;;;;;;;10.43;1.77;;;10.50;99.90;;;;;;5056760;28;20124;-73
2022/11/25 11:02:23;;;;;;;6.00;0.50;;;10.50;99.90;;;;;;5038826;28;20522;-74
2022/11/25 11:04:56;;;;;;;7.22;0.88;;;10.50;99.90;;;;;;5056267;28;20366;-73
2022/11/25 11:07:23;;;;;;;2.97;0.63;;;10.60;99.90;;;;;;5038990;28;20086;-73
2022/11/25 11:09:49;;;;;;;9.25;0.68;;;10.70;99.90;;;;;;5038274;28;20017;-74
2022/11/25 11:12:29;;;;;;;4.65;0.70;;;10.60;99.90;;;;;;5037711;28;20462;-74
2022/11/25 11:15:20;;;;;;;5.70;0.35;;;10.80;99.90;;;;;;5038400;28;20124;-74
2022/11/25 11:17:47;;;;;;;4.72;0.63;;;10.80;99.90;;;;;;5038216;28;20515;-74
2022/11/25 11:20:31;;;;;;;7.72;1.33;;;10.90;99.90;;;;;;5056420;28;20048;-74
2022/11/25 11:23:12;;;;;;;8.60;0.68;;;10.90;99.90;;;;;;5038204;28;20426;-74
2022/11/25 11:25:41;;;;;;;9.65;0.73;;;10.90;99.90;;;;;;5056327;28;20037;-74
2022/11/25 11:28:27;;;;;;;9.90;1.48;;;10.90;99.90;;;;;;5056496;28;20051;-74
2022/11/25 11:31:07;;;;;;;17.10;1.25;;;11.00;99.90;;;;;;5056531;28;20446;-73
2022/11/25 11:34:02;;;;;;;8.02;0.65;;;11.10;99.90;;;;;;5038167;28;20017;-73
2022/11/25 11:36:55;;;;;;;5.20;0.30;;;11.00;99.90;;;;;;5055819;28;20032;-74
2022/11/25 11:39:34;;;;;;;6.50;1.10;;;11.10;99.90;;;;;;5028688;28;20411;-74
2022/11/25 11:42:21;;;;;;;2.90;0.20;;;11.20;99.90;;;;;;5037914;28;20033;-74
2022/11/25 11:45:05;;;;;;;2.55;0.10;;;11.20;99.90;;;;;;5037948;28;20025;-74
2022/11/25 11:47:48;;;;;;;3.33;0.32;;;11.30;99.90;;;;;;5055338;28;20365;-73
2022/11/25 11:50:39;;;;;;;4.10;0.20;;;11.50;99.90;;;;;;5037556;28;20185;-74
2022/11/25 11:53:25;;;;;;;5.72;0.93;;;11.60;99.90;;;;;;5055348;28;20017;-73
2022/11/25 11:56:19;;;;;;;3.67;0.28;;;11.80;99.90;;;;;;5054978;28;20033;-74
2022/11/25 11:59:17;;;;;;;6.40;0.05;;;12.00;99.90;;;;;;5054852;28;20032;-74
2022/11/25 12:02:01;;;;;;;5.10;0.70;;;12.20;99.90;;;;;;5035051;28;20127;-74
2022/11/25 12:04:35;;;;;;;6.07;0.45;;;12.20;99.90;;;;;;5054631;28;20025;-74
2022/11/25 12:07:31;;;;;;;4.97;0.22;;;12.20;99.90;;;;;;5036774;28;20021;-76
2022/11/25 12:10:04;;;;;;;7.63;0.38;;;12.40;99.90;;;;;;5036827;28;20063;-74
2022/11/25 12:12:39;;;;;;;6.20;0.05;;;12.40;99.90;;;;;;5054807;28;20028;-74
2022/11/25 12:15:29;;;;;;;8.35;1.02;;;12.40;99.90;;;;;;5054122;28;20110;-74
2022/11/25 12:18:00;;;;;;;6.93;0.20;;;12.40;99.90;;;;;;5054340;28;20021;-74
2022/11/25 12:20:34;;;;;;;8.57;0.45;;;12.50;99.90;;;;;;5054727;28;20029;-74
2022/11/25 12:23:08;;;;;;;18.52;0.52;;;12.50;99.90;;;;;;5054138;28;20376;-74
2022/11/25 12:25:37;;;;;;;6.65;0.55;;;12.40;99.90;;;;;;5036384;28;20075;-74
2022/11/25 12:28:07;;;;;;;2.83;0.28;;;12.40;99.90;;;;;;5054276;28;20017;-74
2022/11/25 12:30:49;;;;;;;5.93;0.43;;;12.40;99.90;;;;;;5054012;28;20079;-74
2022/11/25 12:33:29;;;;;;;5.35;0.20;;;12.60;99.90;;;;;;5054056;28;20087;-74
2022/11/25 12:36:24;;;;;;;4.80;0.47;;;12.70;99.90;;;;;;5053738;28;20029;-74
2022/11/25 12:38:54;;;;;;;5.30;0.10;;;12.80;99.90;;;;;;5032828;28;20123;-74
2022/11/25 12:41:40;;;;;;;8.45;0.65;;;12.70;99.90;;;;;;5053643;28;20403;-75
2022/11/25 12:44:46;;;;;;;5.43;0.10;;;12.60;99.90;;;;;;5053692;28;20025;-75
2022/11/25 12:47:12;;;;;;;2.65;0.50;;;12.30;99.90;;;;;;5042095;28;20044;-75
2022/11/25 12:49:49;;;;;;;12.82;0.65;;;12.20;99.90;;;;;;5053627;28;20017;-75
2022/11/25 12:52:40;;;;;;;4.45;0.17;;;12.20;99.90;;;;;;5054301;28;20170;-75
2022/11/25 12:55:12;;;;;;;9.38;0.85;;;12.20;99.90;;;;;;5053560;28;20446;-75
2022/11/25 12:57:54;;;;;;;8.63;0.45;;;12.40;99.90;;;;;;5035564;28;20426;-75
2022/11/25 13:00:48;;;;;;;6.47;0.98;;;12.50;99.90;;;;;;5053427;28;20086;-75
2022/11/25 13:03:56;;;;;;;4.32;0.43;;;12.60;99.90;;;;;;5049420;28;20123;-75
2022/11/25 13:06:28;;;;;;;7.72;0.15;;;12.50;99.90;;;;;;5039249;28;20039;-77
2022/11/25 13:09:02;;;;;;;5.00;0.68;;;12.40;99.90;;;;;;5053261;28;20473;-75
2022/11/25 13:11:45;;;;;;;9.52;0.88;;;12.30;99.90;;;;;;5035418;28;20025;-75
2022/11/25 13:14:32;;;;;;;10.98;1.00;;;12.30;99.90;;;;;;5053938;28;20545;-75
2022/11/25 13:16:58;;;;;;;14.02;1.83;;;12.30;99.90;;;;;;5053317;28;20029;-75
2022/11/25 13:19:24;;;;;;;12.55;1.15;;;12.40;99.90;;;;;;5053292;28;20131;-75
2022/11/25 13:22:07;;;;;;;8.32;0.85;;;12.30;99.90;;;;;;5035281;28;20264;-76
2022/11/25 13:24:42;;;;;;;9.70;0.75;;;12.40;99.90;;;;;;5035097;28;20067;-76